createdAt,value
2023-01-30T00:00:12.315Z,59.20
2023-01-30T00:02:38.971Z,58.84
2023-01-30T00:05:05.644Z,59.04
2023-01-30T00:07:32.314Z,58.82
2023-01-30T00:09:58.939Z,59.21
2023-01-30T00:12:25.593Z,60.45
2023-01-30T00:14:52.227Z,60.86
2023-01-30T00:17:18.808Z,60.69
2023-01-30T00:19:45.423Z,60.44
2023-01-30T00:22:12.040Z,60.88
2023-01-30T00:24:38.755Z,60.16
2023-01-30T00:27:05.593Z,60.09
2023-01-30T00:29:32.249Z,60.30
2023-01-30T00:31:58.888Z,60.29
2023-01-30T00:34:25.545Z,60.89
2023-01-30T00:37:07.127Z,60.40
2023-01-30T00:39:34.584Z,60.69
2023-01-30T00:42:01.226Z,60.32
2023-01-30T00:44:27.857Z,60.47
2023-01-30T00:46:54.452Z,60.16
2023-01-30T00:49:21.061Z,59.68
2023-01-30T00:51:48.083Z,59.67
2023-01-30T00:54:14.709Z,59.58
2023-01-30T00:56:41.336Z,59.22
2023-01-30T00:59:07.979Z,59.45
2023-01-30T01:01:34.694Z,59.50
2023-01-30T01:04:01.424Z,59.28
2023-01-30T01:06:28.012Z,59.66
2023-01-30T01:08:54.606Z,59.75
2023-01-30T01:11:21.220Z,59.64
2023-01-30T01:13:47.953Z,59.56
2023-01-30T01:16:14.591Z,59.42
2023-01-30T01:18:41.237Z,59.31
2023-01-30T01:21:07.888Z,59.13
2023-01-30T01:23:34.518Z,59.26
2023-01-30T01:26:01.136Z,59.40
2023-01-30T01:28:27.786Z,59.47
2023-01-30T01:30:54.424Z,59.56
2023-01-30T01:33:21.053Z,60.27
2023-01-30T01:35:47.743Z,59.96
2023-01-30T01:38:14.376Z,59.66
2023-01-30T01:40:41.009Z,59.51
2023-01-30T01:43:07.643Z,59.54
2023-01-30T01:45:34.376Z,59.53
2023-01-30T01:48:01.019Z,59.34
2023-01-30T01:50:27.601Z,59.51
2023-01-30T01:52:54.195Z,59.46
2023-01-30T01:55:20.910Z,59.65
2023-01-30T01:57:47.543Z,60.18
2023-01-30T02:00:14.149Z,60.01
2023-01-30T02:02:40.772Z,60.10
2023-01-30T02:05:07.408Z,60.15
2023-01-30T02:07:34.058Z,59.59
2023-01-30T02:10:00.636Z,59.85
2023-01-30T02:12:27.247Z,59.88
2023-01-30T02:14:55.993Z,59.47
2023-01-30T02:17:22.657Z,59.62
2023-01-30T02:19:49.276Z,59.79
2023-01-30T02:22:16.734Z,59.85
2023-01-30T02:24:43.338Z,59.59
2023-01-30T02:27:09.903Z,59.64
2023-01-30T02:29:36.565Z,59.90
2023-01-30T02:32:03.249Z,59.64
2023-01-30T02:34:29.835Z,59.40
2023-01-30T02:36:56.612Z,60.45
2023-01-30T02:39:23.216Z,60.44
2023-01-30T02:41:49.887Z,60.12
2023-01-30T02:44:16.471Z,59.97
2023-01-30T02:46:43.066Z,59.85
2023-01-30T02:49:09.661Z,59.66
2023-01-30T02:51:36.303Z,59.65
2023-01-30T02:54:02.892Z,59.69
2023-01-30T02:56:29.511Z,60.03
2023-01-30T02:58:56.125Z,60.07
2023-01-30T03:01:22.863Z,59.50
2023-01-30T03:03:49.551Z,59.52
2023-01-30T03:06:16.273Z,61.02
2023-01-30T03:08:42.911Z,60.69
2023-01-30T03:11:09.478Z,60.98
2023-01-30T03:13:36.302Z,60.13
2023-01-30T03:16:02.997Z,60.17
2023-01-30T03:18:29.689Z,59.70
2023-01-30T03:20:56.534Z,59.51
2023-01-30T03:23:23.178Z,59.41
2023-01-30T03:25:49.788Z,59.56
2023-01-30T03:28:16.387Z,59.96
2023-01-30T03:30:43.044Z,59.58
2023-01-30T03:33:09.654Z,59.63
2023-01-30T03:35:36.273Z,60.09
2023-01-30T03:38:02.885Z,59.66
2023-01-30T03:40:29.532Z,60.06
2023-01-30T03:42:56.200Z,60.22
2023-01-30T03:45:22.832Z,60.59
2023-01-30T03:47:49.467Z,61.11
2023-01-30T03:50:16.119Z,61.24
2023-01-30T03:52:42.722Z,60.92
2023-01-30T03:55:09.384Z,60.89
2023-01-30T03:57:36.396Z,60.34
2023-01-30T04:00:03.072Z,60.54
2023-01-30T04:02:29.793Z,60.05
2023-01-30T04:04:56.463Z,60.25
2023-01-30T04:07:23.118Z,59.70
2023-01-30T04:09:49.724Z,60.02
2023-01-30T04:12:16.383Z,59.29
2023-01-30T04:14:42.991Z,60.34
2023-01-30T04:17:09.618Z,59.72
2023-01-30T04:19:36.252Z,60.06
2023-01-30T04:22:02.897Z,60.13
2023-01-30T04:24:29.583Z,60.40
2023-01-30T04:26:56.240Z,59.48
2023-01-30T04:29:22.821Z,60.20
2023-01-30T04:31:49.534Z,59.77
2023-01-30T04:34:16.227Z,60.65
2023-01-30T04:36:42.851Z,61.02
2023-01-30T04:39:09.462Z,61.18
2023-01-30T04:41:36.044Z,61.21
2023-01-30T04:44:02.634Z,60.48
2023-01-30T04:46:29.269Z,60.97
2023-01-30T04:48:55.870Z,61.75
2023-01-30T04:51:22.493Z,61.75
2023-01-30T04:53:49.097Z,61.46
2023-01-30T04:56:15.727Z,61.28
2023-01-30T04:58:42.363Z,60.74
2023-01-30T05:01:09.065Z,60.65
2023-01-30T05:03:35.682Z,60.62
2023-01-30T05:06:02.332Z,60.55
2023-01-30T05:08:28.982Z,60.69
2023-01-30T05:10:55.632Z,59.74
2023-01-30T05:13:22.294Z,60.82
2023-01-30T05:15:48.939Z,60.42
2023-01-30T05:18:15.583Z,60.29
2023-01-30T05:20:42.249Z,61.15
2023-01-30T05:23:08.840Z,60.26
2023-01-30T05:25:35.474Z,60.65
2023-01-30T05:28:02.088Z,60.45
2023-01-30T05:30:28.880Z,60.79
2023-01-30T05:32:55.501Z,59.78
2023-01-30T05:35:22.105Z,60.44
2023-01-30T05:37:48.694Z,60.56
2023-01-30T05:40:15.307Z,60.26
2023-01-30T05:42:42.046Z,60.22
2023-01-30T05:45:08.676Z,60.11
2023-01-30T05:47:35.294Z,60.12
2023-01-30T05:50:01.941Z,60.91
2023-01-30T05:52:28.600Z,60.45
2023-01-30T05:54:55.234Z,60.76
2023-01-30T05:57:21.843Z,61.23
2023-01-30T05:59:48.425Z,61.06
2023-01-30T06:02:15.064Z,61.44
2023-01-30T06:04:41.713Z,61.33
2023-01-30T06:07:08.777Z,60.05
2023-01-30T06:09:35.372Z,61.42
2023-01-30T06:12:01.953Z,61.37
2023-01-30T06:14:28.545Z,61.17
2023-01-30T06:16:55.259Z,60.22
2023-01-30T06:19:21.920Z,60.41
2023-01-30T06:21:48.534Z,60.34
2023-01-30T06:24:15.149Z,60.80
2023-01-30T06:26:41.784Z,62.02
2023-01-30T06:29:08.432Z,61.54
2023-01-30T06:31:35.099Z,61.69
2023-01-30T06:34:01.723Z,60.91
2023-01-30T06:36:28.321Z,60.90
2023-01-30T06:38:54.982Z,60.91
2023-01-30T06:41:21.566Z,61.10
2023-01-30T06:43:48.082Z,60.93
2023-01-30T06:46:14.924Z,61.84
2023-01-30T06:48:41.628Z,61.72
2023-01-30T06:51:08.335Z,62.27
2023-01-30T06:53:34.957Z,61.70
2023-01-30T06:56:01.613Z,62.80
2023-01-30T06:58:28.251Z,62.44
2023-01-30T07:00:54.841Z,61.58
2023-01-30T07:03:21.490Z,61.80
2023-01-30T07:05:48.075Z,61.87
2023-01-30T07:08:14.729Z,61.92
2023-01-30T07:10:41.395Z,61.73
2023-01-30T07:13:08.035Z,61.97
2023-01-30T07:15:34.669Z,61.11
2023-01-30T07:18:01.308Z,61.60
2023-01-30T07:20:27.961Z,61.24
2023-01-30T07:22:54.595Z,60.85
2023-01-30T07:25:21.295Z,61.69
2023-01-30T07:27:47.887Z,61.60
2023-01-30T07:30:14.543Z,62.23
2023-01-30T07:32:41.326Z,61.52
2023-01-30T07:35:07.928Z,61.99
2023-01-30T07:37:34.582Z,61.61
2023-01-30T07:40:01.262Z,61.14
2023-01-30T07:42:27.859Z,61.16
2023-01-30T07:44:54.484Z,61.10
2023-01-30T07:47:21.167Z,61.01
2023-01-30T07:49:47.769Z,61.57
2023-01-30T07:52:14.419Z,61.79
2023-01-30T07:54:41.246Z,61.13
2023-01-30T07:57:07.895Z,61.76
2023-01-30T07:59:34.499Z,61.92
2023-01-30T08:02:01.179Z,61.51
2023-01-30T08:04:27.844Z,62.03
2023-01-30T08:06:54.611Z,62.42
2023-01-30T08:09:21.213Z,62.50
2023-01-30T08:11:47.849Z,63.00
2023-01-30T08:14:14.495Z,62.58
2023-01-30T08:16:41.213Z,62.46
2023-01-30T08:19:07.858Z,63.55
2023-01-30T08:21:34.453Z,63.04
2023-01-30T08:24:01.476Z,62.21
2023-01-30T08:26:28.297Z,61.83
2023-01-30T08:28:54.926Z,61.16
2023-01-30T08:31:21.556Z,60.63
2023-01-30T08:33:48.182Z,60.87
2023-01-30T08:36:14.803Z,60.94
2023-01-30T08:38:41.442Z,60.95
2023-01-30T08:41:08.094Z,61.06
2023-01-30T08:43:34.757Z,61.27
2023-01-30T08:46:01.392Z,61.78
2023-01-30T08:48:29.879Z,61.61
2023-01-30T08:50:58.640Z,61.29
2023-01-30T08:53:25.287Z,60.13
2023-01-30T08:55:51.965Z,59.89
2023-01-30T08:58:18.631Z,58.10
2023-01-30T09:00:46.152Z,59.79
2023-01-30T09:03:14.319Z,59.56
2023-01-30T09:05:40.974Z,58.09
2023-01-30T09:08:07.625Z,59.68
2023-01-30T09:10:34.359Z,57.95
2023-01-30T09:13:00.948Z,58.71
2023-01-30T09:15:27.575Z,57.31
2023-01-30T09:17:54.218Z,57.97
2023-01-30T09:20:21.117Z,57.61
2023-01-30T09:22:47.751Z,57.50
2023-01-30T09:25:14.413Z,56.17
2023-01-30T09:27:41.100Z,56.36
2023-01-30T09:30:07.686Z,55.59
2023-01-30T09:32:34.320Z,55.57
2023-01-30T09:35:00.952Z,57.56
2023-01-30T09:37:27.612Z,56.19
2023-01-30T09:39:54.230Z,57.62
2023-01-30T09:42:20.889Z,55.61
2023-01-30T09:44:47.489Z,56.50
2023-01-30T09:47:14.056Z,56.05
2023-01-30T09:49:40.842Z,56.08
2023-01-30T09:52:07.505Z,55.78
2023-01-30T09:54:34.154Z,56.34
2023-01-30T09:57:00.804Z,54.28
2023-01-30T09:59:27.452Z,51.67
2023-01-30T10:01:54.083Z,52.28
2023-01-30T10:04:20.680Z,52.11
2023-01-30T10:06:47.348Z,51.57
2023-01-30T10:09:13.927Z,51.21
2023-01-30T10:11:40.543Z,52.17
2023-01-30T10:14:07.118Z,51.21
2023-01-30T10:16:33.756Z,52.25
2023-01-30T10:19:00.369Z,51.90
2023-01-30T10:21:26.980Z,52.00
2023-01-30T10:23:53.609Z,53.64
2023-01-30T10:26:20.324Z,54.95
2023-01-30T10:28:55.403Z,55.79
2023-01-30T10:31:25.434Z,53.78
2023-01-30T10:33:52.089Z,53.96
2023-01-30T10:36:18.689Z,55.27
2023-01-30T10:38:45.286Z,52.70
2023-01-30T10:41:11.866Z,54.41
2023-01-30T10:43:38.493Z,53.95
2023-01-30T10:46:05.093Z,53.52
2023-01-30T10:48:43.871Z,53.44
2023-01-30T10:51:12.429Z,53.80
2023-01-30T10:53:39.025Z,54.10
2023-01-30T10:56:05.619Z,53.72
2023-01-30T10:58:32.379Z,53.53
2023-01-30T11:00:59.020Z,52.15
2023-01-30T11:03:25.620Z,51.46
2023-01-30T11:05:52.195Z,51.32
2023-01-30T11:08:18.837Z,52.45
2023-01-30T11:10:45.469Z,53.04
2023-01-30T11:13:12.136Z,51.86
2023-01-30T11:15:38.798Z,50.48
2023-01-30T11:18:33.488Z,49.13
2023-01-30T11:20:51.987Z,49.24
2023-01-30T11:23:18.579Z,48.44
2023-01-30T11:25:45.196Z,49.06
2023-01-30T11:28:11.757Z,48.70
2023-01-30T11:30:38.434Z,48.86
2023-01-30T11:33:05.018Z,50.87
2023-01-30T11:35:31.609Z,50.59
2023-01-30T11:37:58.210Z,50.25
2023-01-30T11:40:24.836Z,49.12
2023-01-30T11:42:51.557Z,47.69
2023-01-30T11:45:18.649Z,49.42
2023-01-30T11:47:50.742Z,49.89
2023-01-30T11:50:25.818Z,49.42
2023-01-30T11:52:55.352Z,48.81
2023-01-30T11:55:21.964Z,48.97
2023-01-30T11:57:48.556Z,48.41
2023-01-30T12:00:15.225Z,47.31
2023-01-30T12:02:41.850Z,46.71
2023-01-30T12:05:08.566Z,46.29
2023-01-30T12:07:35.279Z,47.05
2023-01-30T12:10:01.952Z,48.35
2023-01-30T12:12:28.625Z,49.21
2023-01-30T12:14:55.282Z,48.88
2023-01-30T12:17:21.896Z,48.11
2023-01-30T12:19:48.586Z,47.72
2023-01-30T12:22:15.195Z,48.01
2023-01-30T12:24:41.820Z,46.53
2023-01-30T12:27:08.593Z,46.19
2023-01-30T12:29:35.383Z,46.23
2023-01-30T12:32:01.974Z,45.29
2023-01-30T12:34:28.549Z,45.00
2023-01-30T12:36:55.197Z,43.49
2023-01-30T12:39:21.778Z,45.11
2023-01-30T12:41:48.370Z,47.49
2023-01-30T12:44:14.952Z,47.52
2023-01-30T12:46:41.549Z,46.97
2023-01-30T12:49:11.331Z,46.33
2023-01-30T12:51:38.377Z,46.93
2023-01-30T12:54:05.042Z,47.05
2023-01-30T12:56:31.662Z,45.06
2023-01-30T12:58:58.370Z,46.91
2023-01-30T13:01:25.133Z,46.21
2023-01-30T13:03:51.907Z,43.91
2023-01-30T13:06:18.565Z,46.13
2023-01-30T13:08:45.239Z,44.27
2023-01-30T13:11:11.987Z,45.75
2023-01-30T13:13:38.602Z,45.47
2023-01-30T13:16:05.355Z,44.72
2023-01-30T13:18:32.106Z,45.12
2023-01-30T13:21:00.427Z,45.88
2023-01-30T13:23:27.249Z,46.17
2023-01-30T13:25:53.851Z,47.75
2023-01-30T13:28:20.560Z,47.94
2023-01-30T13:30:47.217Z,47.10
2023-01-30T13:33:13.889Z,47.96
2023-01-30T13:35:40.600Z,49.08
2023-01-30T13:38:07.319Z,46.63
2023-01-30T13:40:33.997Z,47.11
2023-01-30T13:43:00.686Z,47.69
2023-01-30T13:45:27.291Z,48.82
2023-01-30T13:47:53.930Z,50.39
2023-01-30T13:50:20.933Z,49.27
2023-01-30T13:52:47.696Z,48.69
2023-01-30T13:55:14.383Z,49.72
2023-01-30T13:57:41.059Z,49.25
2023-01-30T14:00:07.693Z,49.44
2023-01-30T14:02:34.325Z,47.61
2023-01-30T14:05:00.974Z,46.78
2023-01-30T14:07:27.635Z,48.33
2023-01-30T14:09:54.279Z,48.98
2023-01-30T14:12:20.928Z,49.39
2023-01-30T14:14:47.604Z,49.74
2023-01-30T14:17:14.281Z,48.88
2023-01-30T14:19:40.962Z,47.53
2023-01-30T14:22:07.632Z,48.02
2023-01-30T14:24:34.247Z,48.28
2023-01-30T14:27:00.948Z,48.38
2023-01-30T14:29:27.619Z,48.67
2023-01-30T14:31:54.476Z,49.14
2023-01-30T14:34:21.274Z,50.36
2023-01-30T14:36:48.980Z,49.89
2023-01-30T14:39:15.669Z,49.96
2023-01-30T14:41:42.287Z,50.22
2023-01-30T14:44:08.924Z,49.47
2023-01-30T14:46:35.598Z,49.04
2023-01-30T14:49:02.336Z,50.21
2023-01-30T14:51:29.028Z,51.86
2023-01-30T14:53:55.703Z,52.01
2023-01-30T14:56:22.398Z,50.77
2023-01-30T14:58:49.054Z,51.93
2023-01-30T15:01:15.772Z,51.91
2023-01-30T15:03:42.467Z,51.25
2023-01-30T15:06:09.118Z,50.14
2023-01-30T15:08:35.801Z,49.61
2023-01-30T15:11:02.474Z,49.92
2023-01-30T15:13:29.153Z,49.95
2023-01-30T15:15:55.848Z,48.06
2023-01-30T15:18:22.544Z,49.66
2023-01-30T15:20:49.207Z,49.58
2023-01-30T15:23:15.882Z,49.22
2023-01-30T15:25:42.724Z,48.83
2023-01-30T15:28:09.370Z,48.13
2023-01-30T15:30:36.100Z,50.42
2023-01-30T15:33:02.756Z,50.65
2023-01-30T15:35:29.422Z,50.70
2023-01-30T15:37:56.058Z,51.54
2023-01-30T15:40:22.993Z,51.37
2023-01-30T15:42:49.822Z,51.42
2023-01-30T15:45:16.487Z,51.86
2023-01-30T15:47:43.152Z,51.80
2023-01-30T15:50:09.837Z,52.12
2023-01-30T15:52:36.484Z,52.38
2023-01-30T15:55:03.151Z,51.65
2023-01-30T15:57:29.858Z,51.62
2023-01-30T15:59:56.564Z,53.31
2023-01-30T16:02:23.283Z,53.35
2023-01-30T16:04:49.890Z,54.57
2023-01-30T16:07:16.646Z,53.15
2023-01-30T16:09:49.634Z,52.70
2023-01-30T16:12:21.876Z,53.48
2023-01-30T16:14:48.575Z,52.75
2023-01-30T16:17:15.235Z,52.51
2023-01-30T16:19:41.869Z,51.70
2023-01-30T16:22:08.544Z,52.51
2023-01-30T16:24:35.173Z,53.95
2023-01-30T16:27:01.837Z,54.46
2023-01-30T16:29:28.441Z,54.53
2023-01-30T16:31:55.208Z,55.05
2023-01-30T16:34:21.879Z,54.92
2023-01-30T16:36:48.514Z,54.72
2023-01-30T16:39:15.230Z,55.00
2023-01-30T16:41:41.873Z,54.80
2023-01-30T16:44:08.570Z,56.08
2023-01-30T16:46:35.235Z,56.71
2023-01-30T16:49:01.904Z,55.85
2023-01-30T16:51:28.580Z,57.49
2023-01-30T16:53:55.272Z,56.98
2023-01-30T16:56:21.907Z,56.69
2023-01-30T16:58:48.601Z,57.00
2023-01-30T17:01:15.386Z,56.62
2023-01-30T17:03:42.109Z,58.14
2023-01-30T17:06:08.812Z,58.51
2023-01-30T17:08:35.485Z,57.09
2023-01-30T17:11:02.089Z,57.16
2023-01-30T17:13:28.733Z,56.81
2023-01-30T17:15:55.432Z,56.42
2023-01-30T17:18:22.098Z,56.87
2023-01-30T17:20:48.722Z,56.58
2023-01-30T17:23:15.518Z,56.52
2023-01-30T17:25:42.212Z,56.46
2023-01-30T17:28:08.893Z,59.96
2023-01-30T17:30:35.493Z,61.41
2023-01-30T17:33:02.253Z,63.30
2023-01-30T17:35:28.921Z,62.06
2023-01-30T17:38:04.798Z,61.11
2023-01-30T17:40:32.135Z,61.04
2023-01-30T17:42:58.756Z,56.56
2023-01-30T17:45:25.403Z,53.59
2023-01-30T17:47:52.093Z,52.34
2023-01-30T17:50:19.127Z,51.45
2023-01-30T17:52:45.919Z,51.66
2023-01-30T17:55:12.623Z,50.35
2023-01-30T17:57:39.294Z,50.31
2023-01-30T18:00:05.981Z,50.09
2023-01-30T18:02:32.811Z,49.63
2023-01-30T18:04:59.653Z,50.50
2023-01-30T18:07:26.329Z,49.50
2023-01-30T18:09:52.941Z,50.65
2023-01-30T18:12:19.604Z,50.43
2023-01-30T18:14:46.198Z,50.29
2023-01-30T18:17:12.895Z,51.08
2023-01-30T18:19:39.516Z,51.74
2023-01-30T18:22:06.200Z,51.66
2023-01-30T18:24:32.854Z,51.87
2023-01-30T18:27:01.747Z,51.46
2023-01-30T18:29:28.589Z,51.48
2023-01-30T18:31:55.269Z,51.43
2023-01-30T18:34:22.089Z,51.51
2023-01-30T18:36:48.722Z,51.34
2023-01-30T18:39:15.402Z,51.32
2023-01-30T18:41:42.086Z,51.52
2023-01-30T18:44:08.731Z,51.63
2023-01-30T18:46:35.351Z,51.59
2023-01-30T18:49:01.973Z,51.34
2023-01-30T18:51:28.646Z,51.55
2023-01-30T18:53:55.378Z,50.97
2023-01-30T18:56:22.111Z,51.19
2023-01-30T18:58:48.748Z,50.94
2023-01-30T19:01:15.464Z,50.83
2023-01-30T19:03:42.140Z,50.49
2023-01-30T19:06:10.629Z,50.60
2023-01-30T19:08:38.113Z,50.60
2023-01-30T19:11:04.709Z,50.85
2023-01-30T19:13:31.395Z,50.91
2023-01-30T19:15:58.474Z,50.68
2023-01-30T19:18:25.179Z,50.95
2023-01-30T19:20:54.157Z,50.64
2023-01-30T19:23:21.198Z,50.32
2023-01-30T19:25:47.796Z,50.43
2023-01-30T19:28:14.502Z,50.12
2023-01-30T19:30:41.239Z,50.70
2023-01-30T19:33:07.962Z,51.07
2023-01-30T19:35:34.720Z,51.17
2023-01-30T19:38:01.440Z,51.06
2023-01-30T19:40:28.122Z,52.07
2023-01-30T19:42:59.629Z,51.84
2023-01-30T19:45:32.331Z,52.63
2023-01-30T19:47:58.969Z,53.29
2023-01-30T19:50:25.698Z,53.66
2023-01-30T19:52:52.457Z,53.98
2023-01-30T19:55:19.714Z,53.82
2023-01-30T19:57:46.359Z,53.78
2023-01-30T20:00:13.101Z,52.76
2023-01-30T20:02:39.771Z,52.89
2023-01-30T20:05:06.470Z,53.67
2023-01-30T20:07:33.150Z,52.50
2023-01-30T20:09:59.800Z,53.49
2023-01-30T20:12:26.451Z,53.72
2023-01-30T20:14:53.157Z,53.28
2023-01-30T20:17:19.781Z,53.27
2023-01-30T20:19:46.463Z,53.30
2023-01-30T20:22:13.163Z,52.81
2023-01-30T20:24:39.772Z,53.30
2023-01-30T20:27:06.425Z,53.48
2023-01-30T20:29:33.100Z,53.55
2023-01-30T20:31:59.796Z,54.73
2023-01-30T20:34:26.486Z,54.83
2023-01-30T20:36:53.107Z,54.76
2023-01-30T20:39:19.759Z,54.91
2023-01-30T20:41:46.428Z,55.46
2023-01-30T20:44:13.060Z,55.49
2023-01-30T20:46:39.859Z,55.68
2023-01-30T20:49:06.526Z,55.14
2023-01-30T20:51:33.207Z,54.61
2023-01-30T20:53:59.838Z,53.96
2023-01-30T20:56:26.516Z,54.80
2023-01-30T20:58:53.161Z,55.03
2023-01-30T21:01:19.916Z,55.55
2023-01-30T21:03:46.533Z,55.60
2023-01-30T21:06:13.222Z,55.64
2023-01-30T21:08:39.841Z,55.76
2023-01-30T21:11:06.499Z,55.43
2023-01-30T21:13:33.203Z,54.87
2023-01-30T21:16:00.375Z,56.57
2023-01-30T21:18:27.127Z,55.68
2023-01-30T21:20:53.809Z,56.09
2023-01-30T21:23:20.437Z,56.23
2023-01-30T21:25:47.071Z,55.56
2023-01-30T21:28:13.696Z,55.98
2023-01-30T21:30:40.494Z,56.34
2023-01-30T21:33:07.238Z,56.30
2023-01-30T21:35:33.949Z,56.56
2023-01-30T21:38:00.556Z,56.90
2023-01-30T21:40:27.242Z,56.61
2023-01-30T21:42:53.902Z,55.20
2023-01-30T21:45:21.131Z,56.04
2023-01-30T21:47:48.156Z,55.08
2023-01-30T21:50:14.759Z,55.83
2023-01-30T21:52:41.386Z,55.44
2023-01-30T21:55:08.012Z,54.93
2023-01-30T21:57:34.647Z,54.91
2023-01-30T22:00:01.288Z,54.46
2023-01-30T22:02:27.894Z,54.76
2023-01-30T22:04:54.885Z,54.49
2023-01-30T22:07:21.553Z,53.92
2023-01-30T22:09:48.191Z,53.74
2023-01-30T22:12:14.852Z,54.27
2023-01-30T22:14:41.502Z,53.61
2023-01-30T22:17:08.168Z,53.80
2023-01-30T22:19:34.936Z,55.13
2023-01-30T22:22:01.653Z,55.00
2023-01-30T22:24:28.334Z,55.13
2023-01-30T22:26:54.995Z,55.71
2023-01-30T22:29:21.686Z,57.04
2023-01-30T22:31:48.363Z,56.89
2023-01-30T22:34:15.012Z,56.51
2023-01-30T22:36:41.680Z,56.38
2023-01-30T22:39:08.364Z,56.41
2023-01-30T22:41:35.015Z,56.02
2023-01-30T22:44:01.677Z,56.50
2023-01-30T22:46:28.297Z,56.18
2023-01-30T22:48:54.952Z,56.42
2023-01-30T22:51:21.612Z,57.93
2023-01-30T22:53:48.800Z,57.05
2023-01-30T22:56:15.498Z,57.22
2023-01-30T22:58:42.167Z,57.04
2023-01-30T23:01:08.929Z,58.10
2023-01-30T23:03:35.897Z,57.81
2023-01-30T23:06:02.609Z,57.25
2023-01-30T23:08:29.251Z,57.27
2023-01-30T23:10:55.876Z,57.49
2023-01-30T23:13:22.559Z,57.09
2023-01-30T23:15:49.192Z,57.84
2023-01-30T23:18:15.863Z,57.51
2023-01-30T23:20:42.537Z,57.37
2023-01-30T23:23:09.217Z,58.50
2023-01-30T23:25:35.821Z,57.95
2023-01-30T23:28:02.468Z,56.56
2023-01-30T23:30:29.099Z,56.91
2023-01-30T23:32:55.739Z,57.31
2023-01-30T23:35:22.417Z,57.07
2023-01-30T23:37:49.082Z,57.52
2023-01-30T23:40:15.986Z,56.54
2023-01-30T23:42:42.664Z,56.58
2023-01-30T23:45:09.324Z,56.06
2023-01-30T23:47:36.327Z,56.56
2023-01-30T23:50:03.571Z,57.15
2023-01-30T23:52:30.193Z,57.05
2023-01-30T23:54:56.823Z,56.16
2023-01-30T23:57:23.451Z,56.48
2023-01-30T23:59:50.091Z,55.67
